Aviation Digital Data Service (ADDS)

Output produced by METARs form (1537 UTC 03 December 2021)
found at http://www.aviationweather.gov/metar/data/
 
METAR text: KICT 031453Z 00000KT 10SM FEW220 08/04 A2993 RMK AO2 SLP138 T00830039 51015
Conditions at: KICT (WICHITA , KS, US) observed 1453 UTC 03 December 2021
Temperature: 8.3°C (47°F)
Dewpoint: 3.9°C (39°F) [RH = 74%]
Pressure (altimeter): 29.93 inches Hg (1013.6 mb)
[Sea-level pressure: 1013.8 mb]
Winds: calm
Visibility: 10 or more miles (16+ km)
Ceiling: at least 12,000 feet AGL
Clouds: few clouds at 22000 feet AGL
Weather: no significant weather observed at this time

METAR text: KICT 031353Z 34007KT 10SM FEW220 02/00 A2993 RMK AO2 SLP138 T00220000
Conditions at: KICT (WICHITA , KS, US) observed 1353 UTC 03 December 2021
Temperature: 2.2°C (36°F)
Dewpoint: 0.0°C (32°F) [RH = 85%]
Pressure (altimeter): 29.93 inches Hg (1013.6 mb)
[Sea-level pressure: 1013.8 mb]
Winds: from the NNW (340 degrees) at 8 MPH (7 knots; 3.6 m/s)
Visibility: 10 or more miles (16+ km)
Ceiling: at least 12,000 feet AGL
Clouds: few clouds at 22000 feet AGL
Weather: no significant weather observed at this time

METAR text: KICT 031253Z 00000KT 10SM CLR 05/02 A2990 RMK AO2 SLP127 T00500017
Conditions at: KICT (WICHITA , KS, US) observed 1253 UTC 03 December 2021
Temperature: 5.0°C (41°F)
Dewpoint: 1.7°C (35°F) [RH = 79%]
Pressure (altimeter): 29.90 inches Hg (1012.6 mb)
[Sea-level pressure: 1012.7 mb]
Winds: calm
Visibility: 10 or more miles (16+ km)
Ceiling: at least 12,000 feet AGL
Clouds: sky clear below 12,000 feet AGL
Weather: no significant weather observed at this time

METAR text: KICT 031153Z 00000KT 10SM CLR 05/02 A2989 RMK AO2 SLP120 T00500022 10094 20033 58006
Conditions at: KICT (WICHITA , KS, US) observed 1153 UTC 03 December 2021
Temperature: 5.0°C (41°F)
Dewpoint: 2.2°C (36°F) [RH = 82%]
Pressure (altimeter): 29.89 inches Hg (1012.3 mb)
[Sea-level pressure: 1012.0 mb]
Winds: calm
Visibility: 10 or more miles (16+ km)
Ceiling: at least 12,000 feet AGL
Clouds: sky clear below 12,000 feet AGL
Weather: no significant weather observed at this time

METAR text: KICT 031053Z 17005KT 10SM CLR 04/02 A2989 RMK AO2 SLP121 T00440017
Conditions at: KICT (WICHITA , KS, US) observed 1053 UTC 03 December 2021
Temperature: 4.4°C (40°F)
Dewpoint: 1.7°C (35°F) [RH = 83%]
Pressure (altimeter): 29.89 inches Hg (1012.3 mb)
[Sea-level pressure: 1012.1 mb]
Winds: from the S (170 degrees) at 6 MPH (5 knots; 2.6 m/s)
Visibility: 10 or more miles (16+ km)
Ceiling: at least 12,000 feet AGL
Clouds: sky clear below 12,000 feet AGL
Weather: no significant weather observed at this time

METAR text: KICT 030953Z 15004KT 10SM CLR 07/03 A2990 RMK AO2 SLP122 T00670028
Conditions at: KICT (WICHITA , KS, US) observed 0953 UTC 03 December 2021
Temperature: 6.7°C (44°F)
Dewpoint: 2.8°C (37°F) [RH = 76%]
Pressure (altimeter): 29.90 inches Hg (1012.6 mb)
[Sea-level pressure: 1012.2 mb]
Winds: from the SSE (150 degrees) at 5 MPH (4 knots; 2.1 m/s)
Visibility: 10 or more miles (16+ km)
Ceiling: at least 12,000 feet AGL
Clouds: sky clear below 12,000 feet AGL
Weather: no significant weather observed at this time

METAR text: KICT 030853Z 14003KT 10SM CLR 08/03 A2991 RMK AO2 SLP121 T00830033 56010
Conditions at: KICT (WICHITA , KS, US) observed 0853 UTC 03 December 2021
Temperature: 8.3°C (47°F)
Dewpoint: 3.3°C (38°F) [RH = 71%]
Pressure (altimeter): 29.91 inches Hg (1013.0 mb)
[Sea-level pressure: 1012.1 mb]
Winds: from the SE (140 degrees) at 3 MPH (3 knots; 1.5 m/s)
Visibility: 10 or more miles (16+ km)
Ceiling: at least 12,000 feet AGL
Clouds: sky clear below 12,000 feet AGL
Weather: no significant weather observed at this time

METAR text: KICT 030753Z 16003KT 10SM CLR 08/03 A2991 RMK AO2 SLP123 T00830033
Conditions at: KICT (WICHITA , KS, US) observed 0753 UTC 03 December 2021
Temperature: 8.3°C (47°F)
Dewpoint: 3.3°C (38°F) [RH = 71%]
Pressure (altimeter): 29.91 inches Hg (1013.0 mb)
[Sea-level pressure: 1012.3 mb]
Winds: from the SSE (160 degrees) at 3 MPH (3 knots; 1.5 m/s)
Visibility: 10 or more miles (16+ km)
Ceiling: at least 12,000 feet AGL
Clouds: sky clear below 12,000 feet AGL
Weather: no significant weather observed at this time

METAR text: KICT 030653Z 19005KT 10SM CLR 09/03 A2992 RMK AO2 SLP127 T00890033
Conditions at: KICT (WICHITA , KS, US) observed 0653 UTC 03 December 2021
Temperature: 8.9°C (48°F)
Dewpoint: 3.3°C (38°F) [RH = 68%]
Pressure (altimeter): 29.92 inches Hg (1013.3 mb)
[Sea-level pressure: 1012.7 mb]
Winds: from the S (190 degrees) at 6 MPH (5 knots; 2.6 m/s)
Visibility: 10 or more miles (16+ km)
Ceiling: at least 12,000 feet AGL
Clouds: sky clear below 12,000 feet AGL
Weather: no significant weather observed at this time

METAR text: KICT 030553Z 20006KT 10SM CLR 07/03 A2994 RMK AO2 SLP134 T00720028 10156 20067 402330017 58002
Conditions at: KICT (WICHITA , KS, US) observed 0553 UTC 03 December 2021
Temperature: 7.2°C (45°F)
Dewpoint: 2.8°C (37°F) [RH = 74%]
Pressure (altimeter): 29.94 inches Hg (1014.0 mb)
[Sea-level pressure: 1013.4 mb]
Winds: from the SSW (200 degrees) at 7 MPH (6 knots; 3.1 m/s)
Visibility: 10 or more miles (16+ km)
Ceiling: at least 12,000 feet AGL
Clouds: sky clear below 12,000 feet AGL
Weather: no significant weather observed at this time

METAR text: KICT 030453Z 18008KT 10SM CLR 08/03 A2994 RMK AO2 SLP137 T00780033
Conditions at: KICT (WICHITA , KS, US) observed 0453 UTC 03 December 2021
Temperature: 7.8°C (46°F)
Dewpoint: 3.3°C (38°F) [RH = 73%]
Pressure (altimeter): 29.94 inches Hg (1014.0 mb)
[Sea-level pressure: 1013.7 mb]
Winds: from the S (180 degrees) at 9 MPH (8 knots; 4.1 m/s)
Visibility: 10 or more miles (16+ km)
Ceiling: at least 12,000 feet AGL
Clouds: sky clear below 12,000 feet AGL
Weather: no significant weather observed at this time

METAR text: KICT 030353Z 18007KT 10SM CLR 09/03 A2995 RMK AO2 SLP140 T00940033
Conditions at: KICT (WICHITA , KS, US) observed 0353 UTC 03 December 2021
Temperature: 9.4°C (49°F)
Dewpoint: 3.3°C (38°F) [RH = 66%]
Pressure (altimeter): 29.95 inches Hg (1014.3 mb)
[Sea-level pressure: 1014.0 mb]
Winds: from the S (180 degrees) at 8 MPH (7 knots; 3.6 m/s)
Visibility: 10 or more miles (16+ km)
Ceiling: at least 12,000 feet AGL
Clouds: sky clear below 12,000 feet AGL
Weather: no significant weather observed at this time

METAR text: KICT 030253Z 19008KT 10SM CLR 08/03 A2994 RMK AO2 SLP141 T00780028 58001
Conditions at: KICT (WICHITA , KS, US) observed 0253 UTC 03 December 2021
Temperature: 7.8°C (46°F)
Dewpoint: 2.8°C (37°F) [RH = 71%]
Pressure (altimeter): 29.94 inches Hg (1014.0 mb)
[Sea-level pressure: 1014.1 mb]
Winds: from the S (190 degrees) at 9 MPH (8 knots; 4.1 m/s)
Visibility: 10 or more miles (16+ km)
Ceiling: at least 12,000 feet AGL
Clouds: sky clear below 12,000 feet AGL
Weather: no significant weather observed at this time

METAR text: KICT 030153Z 19006KT 10SM CLR 11/02 A2995 RMK AO2 SLP146 T01110017
Conditions at: KICT (WICHITA , KS, US) observed 0153 UTC 03 December 2021
Temperature: 11.1°C (52°F)
Dewpoint: 1.7°C (35°F) [RH = 52%]
Pressure (altimeter): 29.95 inches Hg (1014.3 mb)
[Sea-level pressure: 1014.6 mb]
Winds: from the S (190 degrees) at 7 MPH (6 knots; 3.1 m/s)
Visibility: 10 or more miles (16+ km)
Ceiling: at least 12,000 feet AGL
Clouds: sky clear below 12,000 feet AGL
Weather: no significant weather observed at this time

METAR text: KICT 030053Z 18006KT 10SM CLR 12/01 A2995 RMK AO2 SLP144 T01220011
Conditions at: KICT (WICHITA , KS, US) observed 0053 UTC 03 December 2021
Temperature: 12.2°C (54°F)
Dewpoint: 1.1°C (34°F) [RH = 47%]
Pressure (altimeter): 29.95 inches Hg (1014.3 mb)
[Sea-level pressure: 1014.4 mb]
Winds: from the S (180 degrees) at 7 MPH (6 knots; 3.1 m/s)
Visibility: 10 or more miles (16+ km)
Ceiling: at least 12,000 feet AGL
Clouds: sky clear below 12,000 feet AGL
Weather: no significant weather observed at this time

METAR text: KICT 022353Z 19005KT 10SM CLR 16/02 A2995 RMK AO2 SLP141 T01610017 10233 20156 56001
Conditions at: KICT (WICHITA , KS, US) observed 2353 UTC 02 December 2021
Temperature: 16.1°C (61°F)
Dewpoint: 1.7°C (35°F) [RH = 38%]
Pressure (altimeter): 29.95 inches Hg (1014.3 mb)
[Sea-level pressure: 1014.1 mb]
Winds: from the S (190 degrees) at 6 MPH (5 knots; 2.6 m/s)
Visibility: 10 or more miles (16+ km)
Ceiling: at least 12,000 feet AGL
Clouds: sky clear below 12,000 feet AGL
Weather: no significant weather observed at this time

METAR text: KICT 022253Z 20004KT 10SM FEW190 19/04 A2995 RMK AO2 SLP140 T01890039
Conditions at: KICT (WICHITA , KS, US) observed 2253 UTC 02 December 2021
Temperature: 18.9°C (66°F)
Dewpoint: 3.9°C (39°F) [RH = 37%]
Pressure (altimeter): 29.95 inches Hg (1014.3 mb)
[Sea-level pressure: 1014.0 mb]
Winds: from the SSW (200 degrees) at 5 MPH (4 knots; 2.1 m/s)
Visibility: 10 or more miles (16+ km)
Ceiling: at least 12,000 feet AGL
Clouds: few clouds at 19000 feet AGL
Weather: no significant weather observed at this time

METAR text: KICT 022153Z 21008KT 10SM FEW200 23/03 A2995 RMK AO2 SLP138 T02280033
Conditions at: KICT (WICHITA , KS, US) observed 2153 UTC 02 December 2021
Temperature: 22.8°C (73°F)
Dewpoint: 3.3°C (38°F) [RH = 28%]
Pressure (altimeter): 29.95 inches Hg (1014.3 mb)
[Sea-level pressure: 1013.8 mb]
Winds: from the SSW (210 degrees) at 9 MPH (8 knots; 4.1 m/s)
Visibility: 10 or more miles (16+ km)
Ceiling: at least 12,000 feet AGL
Clouds: few clouds at 20000 feet AGL
Weather: no significant weather observed at this time

METAR text: KICT 022053Z 20010KT 10SM FEW250 23/04 A2995 RMK AO2 SLP138 T02330044 56022
Conditions at: KICT (WICHITA , KS, US) observed 2053 UTC 02 December 2021
Temperature: 23.3°C (74°F)
Dewpoint: 4.4°C (40°F) [RH = 29%]
Pressure (altimeter): 29.95 inches Hg (1014.3 mb)
[Sea-level pressure: 1013.8 mb]
Winds: from the SSW (200 degrees) at 12 MPH (10 knots; 5.1 m/s)
Visibility: 10 or more miles (16+ km)
Ceiling: at least 12,000 feet AGL
Clouds: few clouds at 25000 feet AGL
Weather: no significant weather observed at this time

METAR text: KICT 021953Z 19007KT 10SM FEW250 23/03 A2996 RMK AO2 SLP141 T02280033
Conditions at: KICT (WICHITA , KS, US) observed 1953 UTC 02 December 2021
Temperature: 22.8°C (73°F)
Dewpoint: 3.3°C (38°F) [RH = 28%]
Pressure (altimeter): 29.96 inches Hg (1014.6 mb)
[Sea-level pressure: 1014.1 mb]
Winds: from the S (190 degrees) at 8 MPH (7 knots; 3.6 m/s)
Visibility: 10 or more miles (16+ km)
Ceiling: at least 12,000 feet AGL
Clouds: few clouds at 25000 feet AGL
Weather: no significant weather observed at this time

METAR text: KICT 021853Z 20005KT 10SM FEW250 21/03 A2998 RMK AO2 SLP149 T02110028
Conditions at: KICT (WICHITA , KS, US) observed 1853 UTC 02 December 2021
Temperature: 21.1°C (70°F)
Dewpoint: 2.8°C (37°F) [RH = 30%]
Pressure (altimeter): 29.98 inches Hg (1015.3 mb)
[Sea-level pressure: 1014.9 mb]
Winds: from the SSW (200 degrees) at 6 MPH (5 knots; 2.6 m/s)
Visibility: 10 or more miles (16+ km)
Ceiling: at least 12,000 feet AGL
Clouds: few clouds at 25000 feet AGL
Weather: no significant weather observed at this time

METAR text: KICT 021753Z 00000KT 10SM FEW250 19/02 A3002 RMK AO2 SLP162 T01940022 10194 20017 58011
Conditions at: KICT (WICHITA , KS, US) observed 1753 UTC 02 December 2021
Temperature: 19.4°C (67°F)
Dewpoint: 2.2°C (36°F) [RH = 32%]
Pressure (altimeter): 30.02 inches Hg (1016.7 mb)
[Sea-level pressure: 1016.2 mb]
Winds: calm
Visibility: 10 or more miles (16+ km)
Ceiling: at least 12,000 feet AGL
Clouds: few clouds at 25000 feet AGL
Weather: no significant weather observed at this time

METAR text: KICT 021653Z VRB03KT 10SM FEW300 18/01 A3004 RMK AO2 SLP169 T01780011
Conditions at: KICT (WICHITA , KS, US) observed 1653 UTC 02 December 2021
Temperature: 17.8°C (64°F)
Dewpoint: 1.1°C (34°F) [RH = 32%]
Pressure (altimeter): 30.04 inches Hg (1017.4 mb)
[Sea-level pressure: 1016.9 mb]
Winds: variable direction winds at 3 MPH (3 knots; 1.5 m/s)
Visibility: 10 or more miles (16+ km)
Ceiling: at least 12,000 feet AGL
Clouds: few clouds at 30000 feet AGL
Weather: no significant weather observed at this time

METAR text: KICT 021553Z 17003KT 10SM FEW250 12/04 A3005 RMK AO2 SLP176 T01220039
Conditions at: KICT (WICHITA , KS, US) observed 1553 UTC 02 December 2021
Temperature: 12.2°C (54°F)
Dewpoint: 3.9°C (39°F) [RH = 57%]
Pressure (altimeter): 30.05 inches Hg (1017.7 mb)
[Sea-level pressure: 1017.6 mb]
Winds: from the S (170 degrees) at 3 MPH (3 knots; 1.5 m/s)
Visibility: 10 or more miles (16+ km)
Ceiling: at least 12,000 feet AGL
Clouds: few clouds at 25000 feet AGL
Weather: no significant weather observed at this time

METAR text: KICT 021453Z 00000KT 10SM FEW250 08/02 A3005 RMK AO2 SLP177 T00830017 53013
Conditions at: KICT (WICHITA , KS, US) observed 1453 UTC 02 December 2021
Temperature: 8.3°C (47°F)
Dewpoint: 1.7°C (35°F) [RH = 63%]
Pressure (altimeter): 30.05 inches Hg (1017.7 mb)
[Sea-level pressure: 1017.7 mb]
Winds: calm
Visibility: 10 or more miles (16+ km)
Ceiling: at least 12,000 feet AGL
Clouds: few clouds at 25000 feet AGL
Weather: no significant weather observed at this time

METAR text: KICT 021353Z 20006KT 10SM CLR 02/M01 A3003 RMK AO2 SLP174 T00221011
Conditions at: KICT (WICHITA , KS, US) observed 1353 UTC 02 December 2021
Temperature: 2.2°C (36°F)
Dewpoint: -1.1°C (30°F) [RH = 79%]
Pressure (altimeter): 30.03 inches Hg (1017.0 mb)
[Sea-level pressure: 1017.4 mb]
Winds: from the SSW (200 degrees) at 7 MPH (6 knots; 3.1 m/s)
Visibility: 10 or more miles (16+ km)
Ceiling: at least 12,000 feet AGL
Clouds: sky clear below 12,000 feet AGL
Weather: no significant weather observed at this time

METAR text: KICT 021253Z 16005KT 10SM CLR 04/00 A3002 RMK AO2 SLP169 T00390000
Conditions at: KICT (WICHITA , KS, US) observed 1253 UTC 02 December 2021
Temperature: 3.9°C (39°F)
Dewpoint: 0.0°C (32°F) [RH = 76%]
Pressure (altimeter): 30.02 inches Hg (1016.7 mb)
[Sea-level pressure: 1016.9 mb]
Winds: from the SSE (160 degrees) at 6 MPH (5 knots; 2.6 m/s)
Visibility: 10 or more miles (16+ km)
Ceiling: at least 12,000 feet AGL
Clouds: sky clear below 12,000 feet AGL
Weather: no significant weather observed at this time

METAR text: KICT 021153Z 19005KT 10SM CLR 03/M01 A3001 RMK AO2 SLP166 T00281006 10089 20028 56006
Conditions at: KICT (WICHITA , KS, US) observed 1153 UTC 02 December 2021
Temperature: 2.8°C (37°F)
Dewpoint: -0.6°C (31°F) [RH = 78%]
Pressure (altimeter): 30.01 inches Hg (1016.3 mb)
[Sea-level pressure: 1016.6 mb]
Winds: from the S (190 degrees) at 6 MPH (5 knots; 2.6 m/s)
Visibility: 10 or more miles (16+ km)
Ceiling: at least 12,000 feet AGL
Clouds: sky clear below 12,000 feet AGL
Weather: no significant weather observed at this time

METAR text: KICT 021053Z 20004KT 10SM CLR 04/00 A3001 RMK AO2 SLP164 T00390000
Conditions at: KICT (WICHITA , KS, US) observed 1053 UTC 02 December 2021
Temperature: 3.9°C (39°F)
Dewpoint: 0.0°C (32°F) [RH = 76%]
Pressure (altimeter): 30.01 inches Hg (1016.3 mb)
[Sea-level pressure: 1016.4 mb]
Winds: from the SSW (200 degrees) at 5 MPH (4 knots; 2.1 m/s)
Visibility: 10 or more miles (16+ km)
Ceiling: at least 12,000 feet AGL
Clouds: sky clear below 12,000 feet AGL
Weather: no significant weather observed at this time

METAR text: KICT 020953Z 20006KT 10SM CLR 04/00 A3001 RMK AO2 SLP164 T00390000
Conditions at: KICT (WICHITA , KS, US) observed 0953 UTC 02 December 2021
Temperature: 3.9°C (39°F)
Dewpoint: 0.0°C (32°F) [RH = 76%]
Pressure (altimeter): 30.01 inches Hg (1016.3 mb)
[Sea-level pressure: 1016.4 mb]
Winds: from the SSW (200 degrees) at 7 MPH (6 knots; 3.1 m/s)
Visibility: 10 or more miles (16+ km)
Ceiling: at least 12,000 feet AGL
Clouds: sky clear below 12,000 feet AGL
Weather: no significant weather observed at this time

METAR text: KICT 020853Z 19005KT 10SM CLR 05/01 A3003 RMK AO2 SLP167 T00500006 55000
Conditions at: KICT (WICHITA , KS, US) observed 0853 UTC 02 December 2021
Temperature: 5.0°C (41°F)
Dewpoint: 0.6°C (33°F) [RH = 73%]
Pressure (altimeter): 30.03 inches Hg (1017.0 mb)
[Sea-level pressure: 1016.7 mb]
Winds: from the S (190 degrees) at 6 MPH (5 knots; 2.6 m/s)
Visibility: 10 or more miles (16+ km)
Ceiling: at least 12,000 feet AGL
Clouds: sky clear below 12,000 feet AGL
Weather: no significant weather observed at this time

METAR text: KICT 020753Z 00000KT 10SM CLR 08/01 A3002 RMK AO2 SLP163 T00780006
Conditions at: KICT (WICHITA , KS, US) observed 0753 UTC 02 December 2021
Temperature: 7.8°C (46°F)
Dewpoint: 0.6°C (33°F) [RH = 60%]
Pressure (altimeter): 30.02 inches Hg (1016.7 mb)
[Sea-level pressure: 1016.3 mb]
Winds: calm
Visibility: 10 or more miles (16+ km)
Ceiling: at least 12,000 feet AGL
Clouds: sky clear below 12,000 feet AGL
Weather: no significant weather observed at this time

METAR text: KICT 020653Z 21008KT 10SM FEW250 06/01 A3002 RMK AO2 SLP164 T00610006
Conditions at: KICT (WICHITA , KS, US) observed 0653 UTC 02 December 2021
Temperature: 6.1°C (43°F)
Dewpoint: 0.6°C (33°F) [RH = 68%]
Pressure (altimeter): 30.02 inches Hg (1016.7 mb)
[Sea-level pressure: 1016.4 mb]
Winds: from the SSW (210 degrees) at 9 MPH (8 knots; 4.1 m/s)
Visibility: 10 or more miles (16+ km)
Ceiling: at least 12,000 feet AGL
Clouds: few clouds at 25000 feet AGL
Weather: no significant weather observed at this time

METAR text: KICT 020553Z 20005KT 10SM FEW250 07/01 A3003 RMK AO2 SLP168 T00720006 10128 20072 401940000 56005
Conditions at: KICT (WICHITA , KS, US) observed 0553 UTC 02 December 2021
Temperature: 7.2°C (45°F)
Dewpoint: 0.6°C (33°F) [RH = 63%]
Pressure (altimeter): 30.03 inches Hg (1017.0 mb)
[Sea-level pressure: 1016.8 mb]
Winds: from the SSW (200 degrees) at 6 MPH (5 knots; 2.6 m/s)
Visibility: 10 or more miles (16+ km)
Ceiling: at least 12,000 feet AGL
Clouds: few clouds at 25000 feet AGL
Weather: no significant weather observed at this time

METAR text: KICT 020453Z 22008KT 10SM FEW250 09/02 A3003 RMK AO2 SLP169 T00890017
Conditions at: KICT (WICHITA , KS, US) observed 0453 UTC 02 December 2021
Temperature: 8.9°C (48°F)
Dewpoint: 1.7°C (35°F) [RH = 61%]
Pressure (altimeter): 30.03 inches Hg (1017.0 mb)
[Sea-level pressure: 1016.9 mb]
Winds: from the SW (220 degrees) at 9 MPH (8 knots; 4.1 m/s)
Visibility: 10 or more miles (16+ km)
Ceiling: at least 12,000 feet AGL
Clouds: few clouds at 25000 feet AGL
Weather: no significant weather observed at this time

METAR text: KICT 020353Z 21006KT 10SM FEW250 08/02 A3004 RMK AO2 SLP175 T00830017
Conditions at: KICT (WICHITA , KS, US) observed 0353 UTC 02 December 2021
Temperature: 8.3°C (47°F)
Dewpoint: 1.7°C (35°F) [RH = 63%]
Pressure (altimeter): 30.04 inches Hg (1017.4 mb)
[Sea-level pressure: 1017.5 mb]
Winds: from the SSW (210 degrees) at 7 MPH (6 knots; 3.1 m/s)
Visibility: 10 or more miles (16+ km)
Ceiling: at least 12,000 feet AGL
Clouds: few clouds at 25000 feet AGL
Weather: no significant weather observed at this time

Forecast for: KICT (WICHITA , KS, US)
Text: KICT 031120Z 0312/0412 17007KT P6SM SKC
Forecast period: 1200 to 1300 UTC 03 December 2021
Forecast type: FROM: standard forecast or significant change
Winds: from the S (170 degrees) at 8 MPH (7 knots; 3.6 m/s)
Visibility: 6 or more miles (10+ km)
Clouds: clear skies
Weather: no significant weather forecast for this period
Text: FM031300 26004KT P6SM FEW250
Forecast period: 1300 to 1600 UTC 03 December 2021
Forecast type: FROM: standard forecast or significant change
Winds: from the W (260 degrees) at 5 MPH (4 knots; 2.1 m/s)
Visibility: 6 or more miles (10+ km)
Ceiling: at least 12,000 feet AGL
Clouds: few clouds at 25000 feet AGL
Weather: no significant weather forecast for this period
Text: FM031600 32009KT P6SM SKC
Forecast period: 1600 to 1700 UTC 03 December 2021
Forecast type: FROM: standard forecast or significant change
Winds: from the NW (320 degrees) at 10 MPH (9 knots; 4.6 m/s)
Visibility: 6 or more miles (10+ km)
Clouds: clear skies
Weather: no significant weather forecast for this period
Text: FM031700 35011G20KT P6SM FEW250
Forecast period: 1700 to 2300 UTC 03 December 2021
Forecast type: FROM: standard forecast or significant change
Winds: from the N (350 degrees) at 13 MPH (11 knots; 5.7 m/s)
gusting to 23 MPH (20 knots; 10.3 m/s)
Visibility: 6 or more miles (10+ km)
Ceiling: at least 12,000 feet AGL
Clouds: few clouds at 25000 feet AGL
Weather: no significant weather forecast for this period
Text: FM032300 03011KT P6SM FEW250
Forecast period: 2300 UTC 03 December 2021 to 1200 UTC 04 December 2021
Forecast type: FROM: standard forecast or significant change
Winds: from the NNE (30 degrees) at 13 MPH (11 knots; 5.7 m/s)
Visibility: 6 or more miles (10+ km)
Ceiling: at least 12,000 feet AGL
Clouds: few clouds at 25000 feet AGL
Weather: no significant weather forecast for this period